Time;durP1;ratioP1;P1;durP2;ratioP2;P2;SDS_P1;SDS_P2;PMS_P1;PMS_P2;Temp;Humidity;BMP_temperature;BMP_pressure;BME280_temperature;BME280_humidity;BME280_pressure;Samples;Min_cycle;Max_cycle;Signal;HPM_P1;HPM_P2
2024/04/18 00:00:42;;;;;;;1.35;0.22;;;8.80;90.00;;;;;;5463715;26;20020;-73
2024/04/18 00:03:07;;;;;;;0.50;0.20;;;8.90;90.20;;;;;;5463251;26;20077;-73
2024/04/18 00:05:33;;;;;;;1.15;0.50;;;8.90;90.10;;;;;;5462268;26;20006;-73
2024/04/18 00:07:58;;;;;;;0.08;0.05;;;8.80;90.20;;;;;;5465198;26;20008;-73
2024/04/18 00:10:24;;;;;;;0.52;0.20;;;8.90;89.80;;;;;;5463648;26;20050;-73
2024/04/18 00:12:50;;;;;;;0.98;0.30;;;9.00;88.90;;;;;;5461888;26;20079;-74
2024/04/18 00:15:16;;;;;;;0.38;0.20;;;9.10;89.10;;;;;;5464473;26;20542;-73
2024/04/18 00:17:42;;;;;;;0.85;0.30;;;9.10;88.60;;;;;;5463662;26;20002;-73
2024/04/18 00:20:08;;;;;;;0.73;0.25;;;9.10;87.90;;;;;;5462453;26;20337;-74
2024/04/18 00:22:34;;;;;;;1.05;0.20;;;9.30;87.60;;;;;;5464078;26;19994;-73
2024/04/18 00:25:00;;;;;;;0.73;0.20;;;9.30;87.50;;;;;;5463159;26;20015;-73
2024/04/18 00:27:27;;;;;;;0.25;0.10;;;9.10;88.00;;;;;;5462516;26;19998;-74
2024/04/18 00:29:52;;;;;;;0.30;0.13;;;9.10;88.20;;;;;;5463158;26;20021;-73
2024/04/18 00:32:18;;;;;;;0.25;0.10;;;9.20;88.20;;;;;;5462512;26;20010;-73
2024/04/18 00:34:44;;;;;;;0.30;0.05;;;9.20;88.20;;;;;;5463105;26;21658;-73
2024/04/18 00:37:09;;;;;;;0.40;0.20;;;9.10;88.20;;;;;;5465050;26;20005;-73
2024/04/18 00:39:35;;;;;;;0.60;0.20;;;9.00;88.10;;;;;;5463127;26;20021;-73
2024/04/18 00:42:01;;;;;;;1.20;0.17;;;9.00;87.80;;;;;;5463413;26;20621;-73
2024/04/18 00:44:28;;;;;;;1.27;0.20;;;9.00;88.10;;;;;;5464400;26;20002;-73
2024/04/18 00:46:55;;;;;;;0.47;0.13;;;9.10;87.60;;;;;;5462676;26;20029;-73
2024/04/18 00:49:21;;;;;;;2.45;0.20;;;9.10;87.50;;;;;;5461927;26;20026;-73
2024/04/18 00:51:47;;;;;;;1.45;0.40;;;9.00;88.00;;;;;;5464670;26;20452;-73
2024/04/18 00:54:14;;;;;;;0.20;0.10;;;8.90;88.40;;;;;;5462137;26;20083;-73
2024/04/18 00:56:40;;;;;;;1.15;0.35;;;8.90;88.40;;;;;;5463398;26;20819;-73
2024/04/18 00:59:06;;;;;;;0.52;0.20;;;9.00;88.20;;;;;;5464614;26;20020;-73
2024/04/18 01:01:32;;;;;;;0.43;0.20;;;8.90;88.30;;;;;;5462561;26;20007;-73
2024/04/18 01:03:58;;;;;;;0.98;0.20;;;8.80;88.70;;;;;;5462141;26;20024;-74
2024/04/18 01:06:24;;;;;;;0.05;0.05;;;8.80;88.50;;;;;;5464481;26;20632;-73
2024/04/18 01:08:51;;;;;;;0.10;0.10;;;8.60;89.00;;;;;;5460527;26;20006;-74
2024/04/18 01:11:16;;;;;;;0.52;0.20;;;8.50;89.60;;;;;;5458239;26;20009;-74
2024/04/18 01:13:42;;;;;;;1.23;0.30;;;8.60;89.00;;;;;;5463805;26;20082;-73
2024/04/18 01:16:08;;;;;;;0.80;0.28;;;8.50;90.10;;;;;;5461976;26;20073;-73
2024/04/18 01:18:35;;;;;;;0.45;0.20;;;8.60;88.50;;;;;;5462162;26;20006;-73
2024/04/18 01:21:01;;;;;;;0.10;0.10;;;8.50;89.20;;;;;;5460323;26;20006;-73
2024/04/18 01:23:27;;;;;;;1.27;0.85;;;8.60;88.90;;;;;;5461610;26;20018;-74
2024/04/18 01:25:53;;;;;;;0.30;0.20;;;8.40;89.80;;;;;;5461604;26;20002;-73
2024/04/18 01:28:19;;;;;;;0.52;0.13;;;8.40;89.60;;;;;;5464791;26;20009;-73
2024/04/18 01:30:45;;;;;;;0.55;0.30;;;8.40;89.30;;;;;;5463207;26;20005;-73
2024/04/18 01:33:11;;;;;;;0.55;0.20;;;8.50;90.00;;;;;;5461279;26;20050;-73
2024/04/18 01:35:37;;;;;;;0.30;0.20;;;8.30;90.00;;;;;;5461584;26;20025;-73
2024/04/18 01:38:03;;;;;;;0.47;0.30;;;8.50;88.40;;;;;;5461231;26;20348;-73
2024/04/18 01:40:28;;;;;;;0.47;0.10;;;8.50;89.20;;;;;;5462151;26;20020;-74
2024/04/18 01:42:54;;;;;;;0.25;0.05;;;8.40;89.40;;;;;;5459683;26;20017;-73
2024/04/18 01:45:20;;;;;;;2.65;0.32;;;8.40;89.10;;;;;;5460608;26;19990;-73
2024/04/18 01:47:46;;;;;;;0.68;0.20;;;8.20;90.30;;;;;;5463130;26;20006;-73
2024/04/18 01:50:12;;;;;;;0.93;0.10;;;8.20;90.20;;;;;;5461733;26;20010;-73
2024/04/18 01:52:38;;;;;;;1.67;0.25;;;8.10;90.20;;;;;;5461839;26;20010;-73
2024/04/18 01:55:05;;;;;;;0.52;0.17;;;7.90;90.80;;;;;;5460746;26;20006;-73
2024/04/18 01:57:31;;;;;;;1.15;0.28;;;7.60;91.90;;;;;;5462228;26;20021;-73
2024/04/18 01:59:56;;;;;;;0.55;0.17;;;7.60;91.30;;;;;;5463113;26;20002;-73
2024/04/18 02:02:23;;;;;;;0.80;0.30;;;7.40;91.80;;;;;;5458976;26;20395;-73
2024/04/18 02:04:49;;;;;;;0.77;0.22;;;7.20;91.70;;;;;;5460476;26;20002;-73
2024/04/18 02:07:15;;;;;;;0.40;0.20;;;7.50;91.60;;;;;;5464493;26;20009;-73
2024/04/18 02:09:40;;;;;;;1.65;0.30;;;7.20;91.60;;;;;;5461344;26;20025;-73
2024/04/18 02:12:06;;;;;;;0.80;0.35;;;7.30;91.50;;;;;;5460061;26;20376;-74
2024/04/18 02:14:32;;;;;;;0.90;0.22;;;7.30;91.30;;;;;;5462417;26;20411;-73
2024/04/18 02:16:57;;;;;;;1.60;0.47;;;7.40;91.10;;;;;;5461195;26;20010;-73
2024/04/18 02:19:24;;;;;;;0.65;0.13;;;7.20;91.20;;;;;;5460067;26;20006;-73
2024/04/18 02:21:49;;;;;;;1.13;0.10;;;7.20;91.50;;;;;;5464044;26;20010;-74
2024/04/18 02:24:15;;;;;;;0.77;0.30;;;6.80;92.10;;;;;;5457458;26;20016;-74
2024/04/18 02:26:42;;;;;;;1.95;0.40;;;6.80;91.70;;;;;;5461064;26;20039;-74
2024/04/18 02:29:08;;;;;;;0.43;0.20;;;6.50;92.00;;;;;;5462380;26;20016;-73
2024/04/18 02:31:33;;;;;;;0.95;0.25;;;6.40;92.30;;;;;;5460003;26;20010;-73
2024/04/18 02:33:59;;;;;;;0.57;0.10;;;6.30;92.60;;;;;;5461545;26;20062;-73
2024/04/18 02:36:25;;;;;;;1.00;0.32;;;6.30;92.70;;;;;;5462293;26;20440;-73
2024/04/18 02:38:50;;;;;;;3.10;0.20;;;6.40;92.50;;;;;;5460330;26;20006;-73
2024/04/18 02:41:16;;;;;;;0.30;0.08;;;6.20;92.70;;;;;;5460688;26;20441;-73
2024/04/18 02:43:42;;;;;;;0.65;0.00;;;6.20;92.60;;;;;;5463152;26;20333;-73
2024/04/18 02:46:07;;;;;;;0.28;0.10;;;6.20;92.50;;;;;;5460818;26;20016;-73
2024/04/18 02:48:33;;;;;;;0.73;0.20;;;6.20;92.60;;;;;;5463647;26;20025;-73
2024/04/18 02:50:59;;;;;;;2.35;0.40;;;6.10;92.70;;;;;;5460167;26;20002;-73
2024/04/18 02:53:24;;;;;;;0.93;0.13;;;6.20;92.30;;;;;;5459882;26;20010;-73
2024/04/18 02:55:50;;;;;;;1.08;0.03;;;6.10;92.20;;;;;;5462104;26;19994;-73
2024/04/18 02:58:15;;;;;;;0.63;0.10;;;6.00;92.30;;;;;;5459675;26;20007;-72
2024/04/18 03:00:41;;;;;;;1.15;0.20;;;6.00;92.60;;;;;;5456040;26;20025;-73
2024/04/18 03:03:07;;;;;;;0.50;0.28;;;6.00;92.90;;;;;;5458710;26;19995;-73
2024/04/18 03:05:32;;;;;;;0.40;0.20;;;6.10;92.50;;;;;;5453232;26;20360;-73
2024/04/18 03:07:58;;;;;;;0.20;0.10;;;6.00;92.60;;;;;;5452965;26;20006;-73
2024/04/18 03:10:24;;;;;;;0.45;0.10;;;5.90;93.50;;;;;;5454244;26;20010;-73
2024/04/18 03:12:54;;;;;;;0.70;0.30;;;6.10;93.00;;;;;;5453768;26;21610;-73
2024/04/18 03:15:20;;;;;;;0.52;0.20;;;6.30;92.50;;;;;;5452277;26;20827;-73
2024/04/18 03:17:51;;;;;;;0.70;0.20;;;6.10;92.80;;;;;;5452822;26;20459;-73
2024/04/18 03:20:16;;;;;;;1.27;0.38;;;6.00;93.20;;;;;;5451169;26;20002;-73
2024/04/18 03:22:42;;;;;;;0.32;0.10;;;6.00;92.70;;;;;;5451965;26;20702;-73
2024/04/18 03:25:07;;;;;;;0.57;0.20;;;5.80;93.10;;;;;;5453982;26;20680;-73
2024/04/18 03:27:34;;;;;;;0.38;0.17;;;5.90;92.50;;;;;;5454943;26;19998;-73
2024/04/18 03:30:00;;;;;;;0.40;0.17;;;5.90;92.50;;;;;;5452259;26;20006;-73
2024/04/18 03:32:25;;;;;;;0.65;0.20;;;6.00;92.30;;;;;;5454079;26;20002;-73
2024/04/18 03:34:51;;;;;;;0.08;0.08;;;5.80;92.60;;;;;;5455199;26;20335;-73
2024/04/18 03:37:17;;;;;;;0.85;0.20;;;5.90;92.60;;;;;;5451768;26;20040;-73
2024/04/18 03:39:42;;;;;;;0.70;0.20;;;5.60;92.60;;;;;;5456794;26;20006;-73
2024/04/18 03:42:08;;;;;;;0.35;0.00;;;5.70;92.70;;;;;;5458691;26;20010;-73
2024/04/18 03:44:34;;;;;;;0.17;0.10;;;5.80;92.90;;;;;;5453626;26;20002;-74
2024/04/18 03:46:59;;;;;;;0.75;0.25;;;5.70;92.90;;;;;;5455744;26;20392;-73
2024/04/18 03:49:25;;;;;;;1.23;0.40;;;5.70;93.40;;;;;;5452696;26;20602;-73
2024/04/18 03:51:50;;;;;;;1.05;0.40;;;6.00;92.50;;;;;;5452228;26;20505;-73
2024/04/18 03:54:19;;;;;;;1.75;0.13;;;5.90;92.60;;;;;;5454634;26;20468;-73
2024/04/18 03:56:44;;;;;;;0.10;0.10;;;6.10;92.20;;;;;;5452575;26;20013;-73
2024/04/18 03:59:10;;;;;;;0.73;0.25;;;6.00;92.40;;;;;;5449811;26;20723;-73
2024/04/18 04:01:36;;;;;;;0.65;0.20;;;6.00;92.40;;;;;;5454451;26;20017;-73
2024/04/18 04:04:01;;;;;;;1.02;0.30;;;6.10;92.20;;;;;;5454491;26;20021;-73
2024/04/18 04:06:27;;;;;;;0.52;0.17;;;5.90;92.40;;;;;;5452130;26;20370;-73
2024/04/18 04:08:52;;;;;;;0.90;0.25;;;6.00;92.50;;;;;;5454113;26;21714;-73
2024/04/18 04:11:18;;;;;;;2.13;0.30;;;5.70;93.60;;;;;;5453980;26;19994;-73
2024/04/18 04:13:44;;;;;;;0.82;0.40;;;5.50;93.80;;;;;;5452481;26;20059;-73
2024/04/18 04:16:10;;;;;;;1.45;0.50;;;5.90;92.70;;;;;;5454584;26;19998;-73
2024/04/18 04:18:35;;;;;;;0.98;0.30;;;6.00;93.30;;;;;;5451491;26;20006;-74
2024/04/18 04:21:01;;;;;;;0.85;0.25;;;5.80;93.60;;;;;;5451811;26;20389;-74
2024/04/18 04:23:26;;;;;;;0.25;0.10;;;6.00;92.80;;;;;;5454157;26;20770;-74
2024/04/18 04:25:53;;;;;;;0.90;0.30;;;5.80;93.00;;;;;;5451570;26;20002;-73
2024/04/18 04:28:19;;;;;;;1.65;0.57;;;5.80;93.10;;;;;;5452042;26;20042;-73
2024/04/18 04:30:44;;;;;;;3.22;0.35;;;5.50;94.20;;;;;;5454213;26;20078;-74
2024/04/18 04:33:10;;;;;;;1.27;0.20;;;5.50;94.30;;;;;;5452867;26;20531;-73
2024/04/18 04:35:35;;;;;;;0.75;0.30;;;5.50;94.50;;;;;;5452338;26;20002;-74
2024/04/18 04:38:01;;;;;;;1.00;0.28;;;5.50;94.20;;;;;;5453571;26;20005;-74
2024/04/18 04:40:27;;;;;;;0.22;0.20;;;5.50;94.10;;;;;;5451156;26;20013;-73
2024/04/18 04:42:52;;;;;;;0.20;0.10;;;5.70;93.60;;;;;;5452479;26;20009;-74
2024/04/18 04:45:18;;;;;;;0.98;0.20;;;5.70;93.40;;;;;;5451668;26;20077;-73
2024/04/18 04:47:43;;;;;;;0.35;0.10;;;5.70;93.60;;;;;;5452225;26;20006;-73
2024/04/18 04:50:09;;;;;;;0.43;0.20;;;5.60;93.40;;;;;;5451350;26;19990;-73
2024/04/18 04:52:35;;;;;;;0.47;0.20;;;5.70;93.50;;;;;;5451731;26;20496;-73
2024/04/18 04:55:00;;;;;;;0.75;0.22;;;5.60;93.50;;;;;;5450352;26;20002;-73
2024/04/18 04:57:26;;;;;;;1.25;0.40;;;5.60;93.50;;;;;;5449209;26;20002;-74
2024/04/18 04:59:52;;;;;;;6.93;0.50;;;5.60;94.00;;;;;;5453786;26;19998;-73
2024/04/18 05:02:17;;;;;;;3.10;1.20;;;5.60;93.80;;;;;;5450623;26;20474;-74
2024/04/18 05:04:43;;;;;;;2.47;1.00;;;5.70;93.60;;;;;;5450557;26;20016;-73
2024/04/18 05:07:08;;;;;;;3.00;0.90;;;5.80;93.80;;;;;;5452573;26;20709;-73
2024/04/18 05:09:34;;;;;;;2.25;0.90;;;5.80;93.50;;;;;;5449497;26;20002;-73
2024/04/18 05:12:00;;;;;;;2.88;0.70;;;5.80;93.90;;;;;;5452344;26;20002;-73
2024/04/18 05:14:26;;;;;;;1.75;0.65;;;5.80;93.60;;;;;;5450993;26;20013;-73
2024/04/18 05:16:52;;;;;;;1.85;0.50;;;5.90;93.60;;;;;;5452571;26;20549;-72
2024/04/18 05:19:19;;;;;;;2.83;0.80;;;5.90;93.90;;;;;;5450268;26;20012;-73
2024/04/18 05:21:45;;;;;;;0.82;0.40;;;5.80;94.20;;;;;;5453143;26;20006;-73
2024/04/18 05:24:11;;;;;;;3.25;0.45;;;5.80;94.20;;;;;;5448345;26;20381;-73
2024/04/18 05:26:36;;;;;;;1.27;0.38;;;6.00;95.90;;;;;;5449520;26;20017;-75
2024/04/18 05:31:52;;;;;;;0.55;0.43;;;6.20;94.40;;;;;;5452768;26;20010;-73
2024/04/18 05:34:18;;;;;;;1.83;0.50;;;6.40;93.80;;;;;;5451641;26;21190;-74
2024/04/18 05:36:45;;;;;;;0.85;0.20;;;6.40;93.90;;;;;;5450069;26;20010;-74
2024/04/18 05:39:11;;;;;;;1.50;0.52;;;6.50;93.70;;;;;;5453826;26;20002;-74
2024/04/18 05:41:37;;;;;;;2.58;0.50;;;6.50;93.70;;;;;;5451039;26;20100;-74
2024/04/18 05:44:03;;;;;;;1.73;0.65;;;6.80;92.90;;;;;;5450128;26;20038;-74
2024/04/18 05:46:28;;;;;;;1.67;0.85;;;7.00;92.80;;;;;;5454032;26;20017;-74
2024/04/18 05:48:54;;;;;;;0.68;0.28;;;7.20;93.10;;;;;;5451475;26;20721;-74
2024/04/18 05:51:19;;;;;;;0.82;0.30;;;7.20;92.90;;;;;;5451255;26;21680;-74
2024/04/18 05:53:47;;;;;;;0.45;0.30;;;7.20;93.20;;;;;;5446467;26;20006;-74
2024/04/18 05:56:12;;;;;;;1.08;0.40;;;7.40;93.10;;;;;;5451895;26;20017;-74
2024/04/18 05:58:38;;;;;;;0.35;0.20;;;7.50;93.60;;;;;;5447958;26;20017;-73
2024/04/18 06:01:05;;;;;;;1.77;0.35;;;7.70;93.90;;;;;;5450193;26;20050;-74
2024/04/18 06:03:32;;;;;;;0.73;0.30;;;7.80;93.80;;;;;;5449228;26;19998;-73
2024/04/18 06:05:58;;;;;;;1.10;0.50;;;7.80;93.80;;;;;;5448478;26;20002;-73
2024/04/18 06:08:23;;;;;;;0.75;0.28;;;8.00;94.20;;;;;;5450809;26;20046;-75
2024/04/18 06:10:49;;;;;;;0.95;0.30;;;8.10;93.10;;;;;;5451786;26;23007;-73
2024/04/18 06:13:15;;;;;;;2.17;0.15;;;8.30;94.40;;;;;;5450663;26;20117;-73
2024/04/18 06:15:44;;;;;;;0.63;0.30;;;8.40;93.40;;;;;;5450639;26;21013;-73
2024/04/18 06:18:10;;;;;;;1.75;0.43;;;8.40;94.30;;;;;;5448097;26;20798;-72
2024/04/18 06:20:45;;;;;;;1.30;0.40;;;8.50;94.20;;;;;;5450429;26;20563;-73
2024/04/18 06:23:12;;;;;;;3.58;0.50;;;8.60;93.80;;;;;;5448849;26;19998;-73
2024/04/18 06:25:38;;;;;;;1.40;0.30;;;8.80;93.10;;;;;;5449735;26;19998;-73
2024/04/18 06:28:09;;;;;;;0.45;0.10;;;8.80;93.60;;;;;;5448637;26;20005;-73
2024/04/18 06:30:34;;;;;;;1.95;0.38;;;8.90;93.90;;;;;;5448335;26;20542;-73
2024/04/18 06:33:00;;;;;;;1.92;0.50;;;8.80;93.40;;;;;;5450347;26;20002;-72
2024/04/18 06:35:25;;;;;;;0.98;0.35;;;8.60;92.80;;;;;;5449316;26;20078;-73
2024/04/18 06:37:51;;;;;;;7.15;0.60;;;8.60;92.80;;;;;;5448534;26;20002;-73
2024/04/18 06:40:20;;;;;;;0.90;0.43;;;8.80;92.70;;;;;;5447706;26;19997;-73
2024/04/18 06:42:46;;;;;;;1.17;0.50;;;9.00;93.40;;;;;;5448557;26;21450;-73
2024/04/18 06:45:12;;;;;;;2.13;0.77;;;9.20;93.40;;;;;;5448530;26;20006;-74
2024/04/18 06:47:38;;;;;;;2.15;0.50;;;9.20;92.90;;;;;;5450323;26;20003;-73
2024/04/18 06:50:04;;;;;;;3.22;0.65;;;9.20;92.80;;;;;;5448977;26;20045;-73
2024/04/18 06:52:31;;;;;;;1.85;0.45;;;9.30;92.70;;;;;;5450221;26;20002;-73
2024/04/18 06:54:56;;;;;;;1.98;0.85;;;9.30;92.10;;;;;;5451328;26;20535;-72
2024/04/18 06:57:22;;;;;;;0.30;0.20;;;9.20;91.70;;;;;;5449743;26;20001;-73
2024/04/18 06:59:48;;;;;;;2.17;0.47;;;9.00;91.10;;;;;;5450083;26;20023;-73
2024/04/18 07:02:13;;;;;;;4.22;0.50;;;9.10;91.70;;;;;;5451641;26;20013;-73
2024/04/18 07:04:39;;;;;;;1.23;0.60;;;9.00;90.90;;;;;;5449344;26;20006;-73
2024/04/18 07:07:06;;;;;;;8.60;0.90;;;9.10;91.50;;;;;;5450471;26;20747;-74
2024/04/18 07:09:32;;;;;;;4.82;0.70;;;9.20;91.80;;;;;;5451577;26;20139;-73
2024/04/18 07:12:00;;;;;;;2.92;0.55;;;9.20;91.90;;;;;;5450518;26;20006;-73
2024/04/18 07:14:25;;;;;;;1.80;0.60;;;9.30;91.50;;;;;;5449103;26;20955;-74
2024/04/18 07:16:51;;;;;;;1.27;0.35;;;9.20;91.50;;;;;;5450268;26;21910;-73
2024/04/18 07:19:17;;;;;;;1.23;0.50;;;9.20;91.80;;;;;;5445643;26;20115;-73
2024/04/18 07:21:42;;;;;;;1.80;0.63;;;9.20;91.80;;;;;;5448687;26;20074;-73
2024/04/18 07:24:08;;;;;;;2.20;0.70;;;9.00;91.70;;;;;;5451626;26;20049;-73
2024/04/18 07:26:33;;;;;;;0.85;0.30;;;9.00;91.50;;;;;;5451331;26;20397;-73
2024/04/18 07:28:59;;;;;;;6.70;0.73;;;9.00;91.90;;;;;;5449393;26;20005;-73
2024/04/18 07:31:25;;;;;;;3.10;0.40;;;9.00;92.10;;;;;;5448528;26;20006;-73
2024/04/18 07:33:50;;;;;;;1.17;0.43;;;9.00;91.00;;;;;;5450967;26;20009;-74
2024/04/18 07:36:21;;;;;;;1.05;0.40;;;9.10;91.50;;;;;;5446146;26;20168;-74
2024/04/18 07:38:49;;;;;;;1.95;0.80;;;9.20;91.50;;;;;;5436982;26;20054;-74
2024/04/18 07:41:15;;;;;;;5.05;0.65;;;9.40;91.30;;;;;;5448633;26;20006;-75
2024/04/18 07:43:41;;;;;;;9.60;0.82;;;9.40;91.00;;;;;;5448511;26;20537;-74
2024/04/18 07:46:08;;;;;;;4.80;0.60;;;9.30;91.00;;;;;;5445667;26;19998;-74
2024/04/18 07:48:33;;;;;;;1.20;0.57;;;9.50;91.20;;;;;;5448455;26;20006;-74
2024/04/18 07:50:59;;;;;;;1.42;0.60;;;9.50;91.20;;;;;;5448751;26;20078;-75
2024/04/18 07:53:25;;;;;;;11.52;1.60;;;9.60;91.30;;;;;;5446542;26;19999;-74
2024/04/18 07:55:50;;;;;;;2.83;1.00;;;9.60;92.90;;;;;;5448886;26;20002;-74
2024/04/18 07:58:16;;;;;;;4.03;0.85;;;9.40;93.40;;;;;;5448231;26;20010;-73
2024/04/18 08:00:42;;;;;;;3.30;0.52;;;9.50;93.50;;;;;;5448276;26;20049;-74
2024/04/18 08:03:07;;;;;;;3.70;0.57;;;9.70;93.10;;;;;;5449623;26;20524;-74
2024/04/18 08:05:33;;;;;;;2.97;0.82;;;9.90;93.30;;;;;;5448048;26;20117;-74
2024/04/18 08:07:58;;;;;;;2.75;0.77;;;9.80;93.40;;;;;;5448382;26;20395;-74
2024/04/18 08:10:24;;;;;;;3.47;0.80;;;9.70;93.10;;;;;;5449152;26;20045;-74
2024/04/18 08:12:49;;;;;;;0.77;0.63;;;9.70;93.10;;;;;;5447677;26;22460;-74
2024/04/18 08:15:15;;;;;;;0.85;0.38;;;9.70;93.00;;;;;;5449672;26;20009;-74
2024/04/18 08:17:41;;;;;;;0.82;0.40;;;9.80;92.70;;;;;;5449875;26;20007;-74
2024/04/18 08:20:07;;;;;;;1.25;0.43;;;9.90;91.90;;;;;;5446974;26;20576;-74
2024/04/18 08:22:33;;;;;;;0.73;0.40;;;9.80;92.10;;;;;;5453489;26;20006;-75
2024/04/18 08:25:02;;;;;;;2.92;0.50;;;9.90;92.10;;;;;;5451895;26;20010;-74
2024/04/18 08:27:28;;;;;;;1.52;0.60;;;9.70;92.10;;;;;;5451495;26;20003;-74
2024/04/18 08:29:54;;;;;;;0.75;0.40;;;9.70;91.80;;;;;;5452502;26;20698;-74
2024/04/18 08:32:19;;;;;;;1.83;0.50;;;10.00;92.80;;;;;;5454903;26;20002;-74
2024/04/18 08:34:45;;;;;;;0.95;0.35;;;10.10;93.20;;;;;;5451762;26;22771;-74
2024/04/18 08:37:11;;;;;;;2.15;0.70;;;10.10;92.20;;;;;;5452359;26;20413;-74
2024/04/18 08:39:36;;;;;;;1.05;0.40;;;10.20;92.30;;;;;;5456309;26;20014;-73
2024/04/18 08:42:03;;;;;;;3.15;0.75;;;10.10;91.80;;;;;;5454466;26;20006;-74
2024/04/18 08:44:29;;;;;;;0.75;0.50;;;10.20;92.80;;;;;;5455205;26;20006;-74
2024/04/18 08:46:57;;;;;;;2.20;0.50;;;10.40;91.50;;;;;;5454853;26;20013;-74
2024/04/18 08:49:24;;;;;;;2.85;0.50;;;10.60;91.80;;;;;;5425844;26;21334;-74
2024/04/18 08:51:50;;;;;;;7.47;0.52;;;10.50;91.10;;;;;;5453643;26;20013;-74
2024/04/18 08:54:16;;;;;;;2.28;0.60;;;10.50;91.70;;;;;;5455472;26;20058;-74
2024/04/18 08:56:47;;;;;;;2.83;0.55;;;10.70;91.60;;;;;;5454730;26;20006;-74
2024/04/18 08:59:14;;;;;;;0.98;0.40;;;10.80;91.20;;;;;;5455594;26;20017;-74
2024/04/18 09:01:40;;;;;;;1.65;0.70;;;10.80;91.10;;;;;;5456178;26;20041;-74
2024/04/18 09:04:06;;;;;;;0.95;0.40;;;10.70;90.40;;;;;;5455531;26;20001;-74
2024/04/18 09:06:31;;;;;;;0.95;0.40;;;10.70;90.80;;;;;;5454911;26;20021;-74
2024/04/18 09:09:00;;;;;;;1.35;0.57;;;11.00;91.10;;;;;;5456988;26;20006;-75
2024/04/18 09:11:26;;;;;;;1.35;0.50;;;11.20;91.40;;;;;;5454816;26;19998;-74
2024/04/18 09:13:51;;;;;;;3.42;0.90;;;10.80;90.90;;;;;;5454780;26;20002;-74
2024/04/18 09:16:17;;;;;;;2.15;0.60;;;10.80;90.90;;;;;;5455066;26;20729;-74
2024/04/18 09:18:42;;;;;;;3.95;0.70;;;11.00;90.70;;;;;;5453491;26;20005;-74
2024/04/18 09:21:12;;;;;;;3.22;0.63;;;11.20;91.00;;;;;;5453904;26;21474;-74
2024/04/18 09:23:39;;;;;;;4.97;0.60;;;11.40;91.20;;;;;;5455104;26;20074;-74
2024/04/18 09:26:05;;;;;;;2.50;0.60;;;11.40;90.90;;;;;;5454173;26;20006;-74
2024/04/18 09:28:31;;;;;;;3.13;0.52;;;11.10;90.90;;;;;;5453509;26;20021;-75
2024/04/18 09:30:58;;;;;;;2.53;0.50;;;11.40;90.90;;;;;;5454974;26;20035;-74
2024/04/18 09:33:25;;;;;;;2.40;0.93;;;11.60;90.40;;;;;;5452961;26;20002;-74
2024/04/18 09:36:00;;;;;;;16.05;2.42;;;11.70;90.80;;;;;;5453289;26;20016;-74
2024/04/18 09:38:29;;;;;;;3.58;0.68;;;11.80;90.60;;;;;;5453081;26;20075;-75
2024/04/18 09:41:16;;;;;;;2.05;0.50;;;11.70;91.00;;;;;;5455833;26;20031;-74
2024/04/18 09:43:48;;;;;;;2.63;1.10;;;11.50;90.30;;;;;;5452628;26;20150;-74
2024/04/18 09:46:15;;;;;;;4.78;0.98;;;11.50;89.90;;;;;;5451138;26;20025;-75
2024/04/18 09:48:41;;;;;;;2.53;0.82;;;11.70;90.40;;;;;;5451635;26;20015;-74
2024/04/18 09:51:07;;;;;;;3.20;1.23;;;11.80;90.50;;;;;;5457191;26;20595;-73
2024/04/18 09:53:33;;;;;;;2.38;1.00;;;11.80;91.10;;;;;;5453456;26;20010;-74
2024/04/18 09:56:00;;;;;;;4.22;1.20;;;12.10;90.50;;;;;;5453349;26;20097;-74
2024/04/18 09:58:27;;;;;;;2.25;0.88;;;12.20;90.30;;;;;;5456097;26;20010;-74
2024/04/18 10:00:57;;;;;;;1.38;0.50;;;12.30;89.40;;;;;;5455038;26;20009;-74
2024/04/18 10:03:24;;;;;;;2.10;0.50;;;12.20;88.10;;;;;;5454557;26;20021;-74
2024/04/18 10:05:53;;;;;;;1.95;0.45;;;12.20;87.80;;;;;;5451737;26;20086;-75
2024/04/18 10:08:24;;;;;;;1.85;0.50;;;12.10;88.60;;;;;;5455902;26;20006;-74
2024/04/18 10:10:51;;;;;;;6.43;2.97;;;12.10;87.40;;;;;;5454710;26;20006;-74
2024/04/18 10:13:20;;;;;;;7.47;4.18;;;11.80;85.40;;;;;;5453055;26;20012;-74
2024/04/18 10:15:46;;;;;;;4.38;2.17;;;12.10;85.00;;;;;;5452552;26;20761;-74
2024/04/18 10:18:18;;;;;;;1.30;0.70;;;12.10;85.00;;;;;;5452387;26;20017;-74
2024/04/18 10:20:45;;;;;;;2.20;0.77;;;12.30;83.20;;;;;;5453269;26;20383;-74
2024/04/18 10:23:14;;;;;;;1.90;0.57;;;12.50;84.70;;;;;;5452791;26;20015;-74
2024/04/18 10:25:40;;;;;;;3.63;0.88;;;12.70;82.90;;;;;;5453255;26;20042;-74
2024/04/18 10:28:19;;;;;;;8.18;0.80;;;12.90;85.50;;;;;;5453156;26;20024;-74
2024/04/18 10:30:45;;;;;;;0.93;0.45;;;12.80;84.80;;;;;;5453692;26;20003;-74
2024/04/18 10:33:10;;;;;;;3.05;0.50;;;12.80;85.10;;;;;;5454271;26;20038;-74
2024/04/18 10:35:36;;;;;;;1.25;0.30;;;13.10;85.50;;;;;;5453896;26;20991;-74
2024/04/18 10:38:03;;;;;;;2.05;0.38;;;13.30;84.60;;;;;;5453681;26;20005;-75
2024/04/18 10:40:29;;;;;;;1.92;0.55;;;13.10;86.20;;;;;;5452851;26;20006;-75
2024/04/18 10:43:14;;;;;;;5.32;0.70;;;13.40;85.60;;;;;;5453710;26;20450;-75
2024/04/18 10:45:41;;;;;;;1.02;0.45;;;13.30;83.30;;;;;;5453051;26;20006;-75
2024/04/18 10:48:07;;;;;;;3.50;1.10;;;13.50;84.00;;;;;;5452342;26;20046;-75
2024/04/18 10:50:38;;;;;;;0.80;0.40;;;13.30;81.40;;;;;;5451365;26;20012;-76
2024/04/18 10:53:03;;;;;;;2.25;0.52;;;13.20;81.20;;;;;;5453517;26;20005;-74
2024/04/18 10:55:30;;;;;;;4.22;0.50;;;13.50;83.70;;;;;;5450232;26;20017;-74
2024/04/18 10:57:55;;;;;;;2.25;0.63;;;13.50;83.90;;;;;;5448332;26;20006;-74
2024/04/18 11:00:21;;;;;;;0.68;0.50;;;13.60;83.70;;;;;;5449736;26;20050;-74
2024/04/18 11:02:47;;;;;;;2.22;0.70;;;13.70;84.20;;;;;;5451785;26;19995;-74
2024/04/18 11:05:13;;;;;;;1.20;0.40;;;14.00;85.50;;;;;;5451664;26;20410;-74
2024/04/18 11:07:39;;;;;;;1.80;0.70;;;14.10;83.70;;;;;;5454263;26;20557;-71
2024/04/18 11:10:05;;;;;;;1.77;0.45;;;13.90;83.10;;;;;;5451224;26;20006;-74
2024/04/18 11:12:31;;;;;;;1.88;0.43;;;13.90;82.00;;;;;;5449484;26;20676;-74
2024/04/18 11:14:58;;;;;;;3.25;0.77;;;14.10;81.70;;;;;;5449795;26;20005;-74
2024/04/18 11:17:24;;;;;;;5.00;0.35;;;14.10;82.00;;;;;;5446393;26;20012;-74
2024/04/18 11:19:50;;;;;;;1.08;0.43;;;13.70;80.40;;;;;;5448954;26;20002;-74
2024/04/18 11:22:16;;;;;;;4.45;0.60;;;13.60;81.50;;;;;;5448372;26;20023;-74
2024/04/18 11:24:41;;;;;;;0.88;0.50;;;13.70;82.50;;;;;;5449713;26;19998;-74
2024/04/18 11:27:07;;;;;;;1.25;0.50;;;13.70;81.80;;;;;;5451476;26;19990;-74
2024/04/18 11:29:33;;;;;;;2.35;0.80;;;13.80;83.30;;;;;;5452977;26;20010;-73
2024/04/18 11:32:10;;;;;;;1.50;0.63;;;13.80;82.80;;;;;;5452691;26;20978;-72
2024/04/18 11:34:42;;;;;;;2.58;0.65;;;13.70;84.20;;;;;;5451792;26;20008;-74
2024/04/18 11:37:09;;;;;;;3.95;0.77;;;13.80;83.30;;;;;;5452852;26;20013;-74
2024/04/18 11:39:34;;;;;;;1.30;0.30;;;13.80;82.90;;;;;;5453689;26;20006;-72
2024/04/18 11:42:00;;;;;;;1.50;0.45;;;13.70;82.50;;;;;;5452385;26;20682;-71
2024/04/18 11:44:25;;;;;;;5.13;0.70;;;13.80;83.80;;;;;;5450596;26;19998;-72
2024/04/18 11:46:53;;;;;;;1.67;0.88;;;13.80;82.60;;;;;;5453874;26;21042;-72
2024/04/18 11:49:19;;;;;;;0.70;0.40;;;13.90;83.30;;;;;;5450556;26;20014;-72
2024/04/18 11:51:45;;;;;;;1.08;0.40;;;14.00;82.60;;;;;;5451791;26;20075;-72
2024/04/18 11:54:10;;;;;;;4.85;0.52;;;14.00;83.40;;;;;;5453303;26;20006;-72
2024/04/18 11:56:36;;;;;;;2.88;0.50;;;13.90;83.10;;;;;;5452055;26;20482;-72
2024/04/18 11:59:02;;;;;;;0.80;0.40;;;14.20;83.90;;;;;;5451949;26;20002;-72
2024/04/18 12:01:29;;;;;;;0.85;0.35;;;14.00;82.60;;;;;;5453787;26;20025;-72
2024/04/18 12:03:54;;;;;;;1.23;0.50;;;14.30;83.90;;;;;;5450168;26;20034;-72
2024/04/18 12:06:21;;;;;;;0.73;0.40;;;14.50;82.80;;;;;;5451471;26;20005;-72
2024/04/18 12:08:46;;;;;;;1.52;0.43;;;14.60;83.20;;;;;;5451719;26;20050;-73
2024/04/18 12:11:12;;;;;;;1.02;0.52;;;14.70;82.10;;;;;;5451802;26;20050;-72
2024/04/18 12:13:37;;;;;;;1.27;0.47;;;14.70;82.20;;;;;;5451201;26;20017;-73
2024/04/18 12:16:03;;;;;;;1.73;0.30;;;14.50;80.10;;;;;;5453084;26;20020;-72
2024/04/18 12:18:29;;;;;;;1.05;0.43;;;14.20;81.40;;;;;;5451079;26;20007;-73
2024/04/18 12:20:55;;;;;;;1.23;0.30;;;14.10;81.10;;;;;;5452949;26;20005;-72
2024/04/18 12:23:20;;;;;;;1.65;0.43;;;13.90;82.00;;;;;;5453526;26;20811;-73
2024/04/18 12:25:46;;;;;;;1.17;0.30;;;14.00;82.50;;;;;;5451833;26;22026;-72
2024/04/18 12:28:12;;;;;;;1.20;0.30;;;14.00;81.70;;;;;;5453134;26;20002;-72
2024/04/18 12:30:38;;;;;;;1.88;0.25;;;14.00;82.00;;;;;;5453443;26;20013;-73
2024/04/18 12:33:04;;;;;;;15.70;1.85;;;13.90;83.50;;;;;;5451703;26;20339;-73
2024/04/18 12:35:29;;;;;;;2.47;0.60;;;13.40;83.90;;;;;;5450052;26;20006;-71
2024/04/18 12:37:56;;;;;;;3.95;0.68;;;13.30;84.30;;;;;;5453480;26;20536;-71
2024/04/18 12:40:22;;;;;;;2.67;0.47;;;13.10;82.80;;;;;;5450729;26;20056;-71
2024/04/18 12:42:48;;;;;;;1.17;0.40;;;13.20;84.80;;;;;;5451265;26;20002;-71
2024/04/18 12:45:13;;;;;;;0.63;0.30;;;13.20;85.10;;;;;;5451398;26;20002;-73
2024/04/18 12:47:39;;;;;;;5.50;2.85;;;13.00;85.10;;;;;;5450463;26;19998;-71
2024/04/18 12:50:05;;;;;;;4.47;0.98;;;13.20;85.40;;;;;;5451465;26;20603;-73